createdAt,value
2022-08-30T00:01:29.135Z,101190.41
2022-08-30T00:03:58.462Z,101194.41
2022-08-30T00:06:27.073Z,101208.59
2022-08-30T00:08:55.705Z,101203.34
2022-08-30T00:11:26.060Z,101204.66
2022-08-30T00:13:55.416Z,101205.75
2022-08-30T00:16:23.347Z,101203.97
2022-08-30T00:18:52.026Z,101187.25
2022-08-30T00:21:19.421Z,101197.72
2022-08-30T00:23:46.678Z,101199.56
2022-08-30T00:26:13.962Z,101194.34
2022-08-30T00:28:41.259Z,101196.47
2022-08-30T00:31:08.665Z,101193.97
2022-08-30T00:33:36.236Z,101184.13
2022-08-30T00:36:03.581Z,101178.78
2022-08-30T00:38:30.885Z,101190.44
2022-08-30T00:40:59.881Z,101193.19
2022-08-30T00:43:30.420Z,101188.53
2022-08-30T00:45:58.187Z,101196.44
2022-08-30T00:48:25.915Z,101188.91
2022-08-30T00:50:56.460Z,101186.63
2022-08-30T00:53:27.384Z,101187.53
2022-08-30T00:55:55.329Z,101183.97
2022-08-30T00:58:26.172Z,101182.72
2022-08-30T01:00:55.403Z,101186.63
2022-08-30T01:03:23.093Z,101197.25
2022-08-30T01:05:51.657Z,101186.59
2022-08-30T01:08:22.186Z,101194.09
2022-08-30T01:10:50.747Z,101195.03
2022-08-30T01:13:18.188Z,101198.28
2022-08-30T01:15:46.272Z,101187.31
2022-08-30T01:18:17.219Z,101194.63
2022-08-30T01:21:04.815Z,101199.38
2022-08-30T01:23:32.517Z,101198.28
2022-08-30T01:26:00.698Z,101205.88
2022-08-30T01:28:28.588Z,101208.47
2022-08-30T01:30:56.206Z,101207.34
2022-08-30T01:33:24.916Z,101209.91
2022-08-30T01:35:58.358Z,101210.28
2022-08-30T01:38:32.663Z,101218.22
2022-08-30T01:41:19.896Z,101211.88
2022-08-30T01:43:47.784Z,101207.03
2022-08-30T01:46:16.998Z,101216.84
2022-08-30T01:48:50.221Z,101217.66
2022-08-30T01:51:21.969Z,101216.25
2022-08-30T01:53:49.346Z,101218.38
2022-08-30T01:56:16.689Z,101219.50
2022-08-30T01:58:44.227Z,101215.59
2022-08-30T02:01:13.975Z,101212.69
2022-08-30T02:03:43.367Z,101202.56
2022-08-30T02:06:14.339Z,101208.31
2022-08-30T02:08:42.227Z,101211.66
2022-08-30T02:11:09.775Z,101210.06
2022-08-30T02:13:37.869Z,101213.53
2022-08-30T02:16:07.665Z,101213.03
2022-08-30T02:18:36.844Z,101221.56
2022-08-30T02:21:04.260Z,101225.94
2022-08-30T02:23:31.815Z,101217.34
2022-08-30T02:25:59.561Z,101220.94
2022-08-30T02:28:26.950Z,101214.31
2022-08-30T02:30:54.293Z,101220.59
2022-08-30T02:33:21.859Z,101213.75
2022-08-30T02:35:49.141Z,101219.06
2022-08-30T02:38:16.425Z,101223.28
2022-08-30T02:40:47.504Z,101217.69
2022-08-30T02:43:15.130Z,101222.13
2022-08-30T02:45:42.655Z,101220.28
2022-08-30T02:48:10.179Z,101218.75
2022-08-30T02:50:45.529Z,101218.75
2022-08-30T02:53:16.215Z,101223.31
2022-08-30T02:55:44.244Z,101225.09
2022-08-30T02:58:11.983Z,101220.47
2022-08-30T03:00:41.307Z,101208.22
2022-08-30T03:03:09.918Z,101222.28
2022-08-30T03:05:39.706Z,101237.34
2022-08-30T03:08:08.308Z,101242.63
2022-08-30T03:10:36.257Z,101244.03
2022-08-30T03:13:05.303Z,101229.84
2022-08-30T03:15:32.585Z,101217.94
2022-08-30T03:17:59.907Z,101223.13
2022-08-30T03:20:28.542Z,101239.41
2022-08-30T03:22:55.887Z,101240.16
2022-08-30T03:25:23.523Z,101228.63
2022-08-30T03:27:50.862Z,101221.34
2022-08-30T03:30:19.679Z,101193.75
2022-08-30T03:32:47.248Z,101171.84
2022-08-30T03:35:16.259Z,101162.13
2022-08-30T03:37:43.897Z,101161.91
2022-08-30T03:40:12.993Z,101156.78
2022-08-30T03:42:41.397Z,101151.91
2022-08-30T03:45:12.604Z,101154.44
2022-08-30T03:47:41.050Z,101161.69
2022-08-30T03:50:10.364Z,101152.75
2022-08-30T03:52:37.703Z,101156.75
2022-08-30T03:55:06.180Z,101154.94
2022-08-30T03:57:33.864Z,101157.06
2022-08-30T04:00:05.177Z,101154.44
2022-08-30T04:02:39.145Z,101142.81
2022-08-30T04:05:07.374Z,101147.84
2022-08-30T04:07:34.677Z,101144.97
2022-08-30T04:10:03.991Z,101147.75
2022-08-30T04:12:31.337Z,101150.63
2022-08-30T04:14:58.942Z,101154.66
2022-08-30T04:17:26.240Z,101157.66
2022-08-30T04:19:53.661Z,101149.06
2022-08-30T04:22:21.987Z,101144.81
2022-08-30T04:24:49.539Z,101151.97
2022-08-30T04:27:20.555Z,101143.78
2022-08-30T04:29:48.157Z,101148.66
2022-08-30T04:32:16.639Z,101144.97
2022-08-30T04:34:43.980Z,101149.28
2022-08-30T04:37:11.646Z,101140.53
2022-08-30T04:39:39.540Z,101138.13
2022-08-30T04:42:06.999Z,101146.19
2022-08-30T04:44:34.868Z,101153.31
2022-08-30T04:47:02.450Z,101154.84
2022-08-30T04:49:32.389Z,101152.25
2022-08-30T04:51:59.831Z,101153.03
2022-08-30T04:54:27.179Z,101154.47
2022-08-30T04:56:54.634Z,101149.25
2022-08-30T04:59:22.135Z,101149.53
2022-08-30T05:01:49.526Z,101156.63
2022-08-30T05:04:16.813Z,101151.84
2022-08-30T05:06:44.450Z,101138.84
2022-08-30T05:09:11.992Z,101143.47
2022-08-30T05:11:39.440Z,101157.41
2022-08-30T05:14:07.996Z,101156.16
2022-08-30T05:16:35.588Z,101167.63
2022-08-30T05:19:02.902Z,101163.59
2022-08-30T05:21:30.198Z,101167.13
2022-08-30T05:24:00.108Z,101175.28
2022-08-30T05:26:30.245Z,101170.25
2022-08-30T05:28:57.768Z,101184.31
2022-08-30T05:31:31.277Z,101180.06
2022-08-30T05:33:59.252Z,101182.06
2022-08-30T05:36:30.244Z,101186.69
2022-08-30T05:38:57.877Z,101192.06
2022-08-30T05:41:26.420Z,101199.63
2022-08-30T05:43:55.502Z,101189.69
2022-08-30T05:46:22.950Z,101190.69
2022-08-30T05:48:51.251Z,101188.06
2022-08-30T05:51:23.784Z,101194.31
2022-08-30T05:53:53.160Z,101197.47
2022-08-30T05:56:24.830Z,101197.75
2022-08-30T05:58:53.755Z,101197.91
2022-08-30T06:01:24.771Z,101188.16
2022-08-30T06:03:53.653Z,101194.31
2022-08-30T06:06:21.658Z,101190.47
2022-08-30T06:08:49.552Z,101194.03
2022-08-30T06:11:19.618Z,101188.91
2022-08-30T06:13:47.689Z,101184.34
2022-08-30T06:16:17.803Z,101186.25
2022-08-30T06:18:45.279Z,101179.59
2022-08-30T06:21:22.162Z,101184.88
2022-08-30T06:23:49.628Z,101189.91
2022-08-30T06:26:16.956Z,101186.84
2022-08-30T06:28:44.592Z,101183.88
2022-08-30T06:31:14.437Z,101195.63
2022-08-30T06:33:42.479Z,101194.78
2022-08-30T06:36:12.722Z,101202.66
2022-08-30T06:38:40.128Z,101205.44
2022-08-30T06:41:08.500Z,101200.75
2022-08-30T06:43:35.933Z,101207.97
2022-08-30T06:46:05.285Z,101191.63
2022-08-30T06:48:32.875Z,101207.63
2022-08-30T06:51:00.171Z,101207.47
2022-08-30T06:53:29.670Z,101203.66
2022-08-30T06:56:05.501Z,101205.09
2022-08-30T06:58:33.402Z,101208.78
2022-08-30T07:01:01.071Z,101208.72
2022-08-30T07:03:28.559Z,101208.94
2022-08-30T07:05:56.911Z,101208.75
2022-08-30T07:08:24.836Z,101209.78
2022-08-30T07:10:54.628Z,101213.22
2022-08-30T07:13:24.438Z,101219.13
2022-08-30T07:15:52.327Z,101211.53
2022-08-30T07:18:38.735Z,101206.84
2022-08-30T07:21:11.651Z,101217.75
2022-08-30T07:23:39.098Z,101218.22
2022-08-30T07:26:08.575Z,101220.09
2022-08-30T07:28:41.331Z,101217.84
2022-08-30T07:31:09.897Z,101219.19
2022-08-30T07:33:38.085Z,101211.16
2022-08-30T07:36:06.180Z,101222.19
2022-08-30T07:38:33.882Z,101224.34
2022-08-30T07:41:01.368Z,101214.63
2022-08-30T07:43:29.381Z,101205.41
2022-08-30T07:46:04.335Z,101214.59
2022-08-30T07:48:31.957Z,101209.00
2022-08-30T07:51:05.163Z,101218.38
2022-08-30T07:53:32.810Z,101212.34
2022-08-30T07:56:00.860Z,101216.78
2022-08-30T07:58:34.138Z,101219.84
2022-08-30T08:01:02.053Z,101221.47
2022-08-30T08:03:29.931Z,101227.50
2022-08-30T08:05:57.795Z,101221.56
2022-08-30T08:08:26.230Z,101226.41
2022-08-30T08:10:53.477Z,101224.81
2022-08-30T08:13:20.984Z,101229.19
2022-08-30T08:15:48.596Z,101224.22
2022-08-30T08:18:16.102Z,101227.38
2022-08-30T08:20:43.596Z,101231.94
2022-08-30T08:23:10.811Z,101239.69
2022-08-30T08:25:40.028Z,101237.84
2022-08-30T08:28:08.176Z,101247.94
2022-08-30T08:30:36.741Z,101250.88
2022-08-30T08:33:05.333Z,101254.63
2022-08-30T08:35:33.260Z,101254.00
2022-08-30T08:38:00.958Z,101254.09
2022-08-30T08:40:29.565Z,101254.34
2022-08-30T08:43:02.497Z,101259.06
2022-08-30T08:45:35.742Z,101248.94
2022-08-30T08:48:22.639Z,101253.47
2022-08-30T08:51:08.630Z,101257.47
2022-08-30T08:53:46.277Z,101267.69
2022-08-30T08:56:17.195Z,101259.84
2022-08-30T08:58:48.646Z,101260.66
2022-08-30T09:01:18.543Z,101259.50
2022-08-30T09:03:47.472Z,101267.38
2022-08-30T09:06:51.411Z,101281.31
2022-08-30T09:09:22.325Z,101278.69
2022-08-30T09:11:49.920Z,101277.41
2022-08-30T09:14:20.660Z,101269.72
2022-08-30T09:17:09.392Z,101264.28
2022-08-30T09:20:07.978Z,101260.97
2022-08-30T09:22:40.377Z,101267.31
2022-08-30T09:25:17.076Z,101276.94
2022-08-30T09:27:46.475Z,101271.97
2022-08-30T09:30:21.482Z,101271.63
2022-08-30T09:33:01.178Z,101274.66
2022-08-30T09:35:43.264Z,101274.19
2022-08-30T09:41:03.126Z,101269.72
2022-08-30T09:43:32.613Z,101274.94
2022-08-30T09:46:02.451Z,101272.22
2022-08-30T09:48:37.816Z,101280.50
2022-08-30T09:51:11.544Z,101285.78
2022-08-30T09:53:40.707Z,101280.75
2022-08-30T09:56:34.178Z,101280.75
2022-08-30T09:59:26.338Z,101279.44
2022-08-30T10:02:06.225Z,101288.16
2022-08-30T10:04:52.013Z,101292.63
2022-08-30T10:07:37.534Z,101279.78
2022-08-30T10:10:22.649Z,101279.41
2022-08-30T10:13:11.087Z,101288.56
2022-08-30T10:15:50.253Z,101280.50
2022-08-30T10:18:32.796Z,101274.31
2022-08-30T10:21:27.225Z,101287.16
2022-08-30T10:24:04.481Z,101284.94
2022-08-30T10:26:54.516Z,101284.34
2022-08-30T10:29:24.862Z,101280.22
2022-08-30T10:31:53.242Z,101279.63
2022-08-30T10:34:31.547Z,101282.59
2022-08-30T10:37:07.714Z,101286.88
2022-08-30T10:39:46.795Z,101285.81
2022-08-30T10:42:21.633Z,101286.38
2022-08-30T10:45:13.540Z,101286.91
2022-08-30T10:47:49.557Z,101285.53
2022-08-30T10:50:33.857Z,101289.75
2022-08-30T10:53:06.384Z,101284.22
2022-08-30T10:55:37.038Z,101290.66
2022-08-30T10:58:05.957Z,101284.56
2022-08-30T11:01:16.581Z,101291.72
2022-08-30T11:04:14.263Z,101279.13
2022-08-30T11:07:10.176Z,101292.22
2022-08-30T11:09:40.599Z,101279.47
2022-08-30T11:12:22.134Z,101293.44
2022-08-30T11:14:49.491Z,101294.31
2022-08-30T11:17:45.626Z,101287.91
2022-08-30T11:20:50.362Z,101283.56
2022-08-30T11:23:36.134Z,101292.13
2022-08-30T11:26:12.147Z,101278.28
2022-08-30T11:28:48.383Z,101290.22
2022-08-30T11:31:18.913Z,101287.41
2022-08-30T11:33:53.622Z,101282.28
2022-08-30T11:36:37.697Z,101279.28
2022-08-30T11:39:07.748Z,101269.09
2022-08-30T11:41:41.925Z,101267.84
2022-08-30T11:44:23.045Z,101267.75
2022-08-30T11:46:54.864Z,101273.03
2022-08-30T11:49:23.455Z,101275.75
2022-08-30T11:52:28.051Z,101274.53
2022-08-30T11:55:36.605Z,101269.47
2022-08-30T11:58:17.174Z,101264.63
2022-08-30T12:00:52.582Z,101258.28
2022-08-30T12:03:21.931Z,101270.38
2022-08-30T12:05:53.253Z,101274.28
2022-08-30T12:08:20.565Z,101273.41
2022-08-30T12:10:51.300Z,101278.66
2022-08-30T12:13:37.181Z,101271.00
2022-08-30T12:16:19.971Z,101270.19
2022-08-30T12:18:48.605Z,101275.13
2022-08-30T12:21:21.984Z,101276.22
2022-08-30T12:23:53.827Z,101274.31
2022-08-30T12:26:25.117Z,101266.69
2022-08-30T12:29:34.757Z,101273.50
2022-08-30T12:32:13.492Z,101272.34
2022-08-30T12:34:40.698Z,101276.75
2022-08-30T12:37:23.347Z,101275.56
2022-08-30T12:40:12.091Z,101277.19
2022-08-30T12:42:51.188Z,101277.97
2022-08-30T12:45:20.958Z,101272.75
2022-08-30T12:47:52.690Z,101264.72
2022-08-30T12:50:26.885Z,101267.28
2022-08-30T12:53:01.637Z,101267.69
2022-08-30T12:55:33.778Z,101267.88
2022-08-30T12:58:05.047Z,101257.91
2022-08-30T13:00:36.543Z,101259.13
2022-08-30T13:03:33.585Z,101249.84
2022-08-30T13:06:02.738Z,101237.75
2022-08-30T13:08:39.462Z,101247.41
2022-08-30T13:11:29.659Z,101242.16
2022-08-30T13:14:25.025Z,101241.34
2022-08-30T13:17:20.295Z,101238.16
2022-08-30T13:20:17.208Z,101236.53
2022-08-30T13:23:01.779Z,101227.25
2022-08-30T13:25:30.893Z,101236.09
2022-08-30T13:28:01.574Z,101230.09
2022-08-30T13:30:29.584Z,101224.44
2022-08-30T13:32:56.957Z,101238.16
2022-08-30T13:35:25.008Z,101235.34
2022-08-30T13:37:54.471Z,101224.06
2022-08-30T13:40:22.852Z,101230.88
2022-08-30T13:42:50.336Z,101227.66
2022-08-30T13:48:06.651Z,101226.47
2022-08-30T13:50:33.868Z,101223.25
2022-08-30T13:53:01.248Z,101216.00
2022-08-30T13:55:28.642Z,101216.78
2022-08-30T13:57:57.257Z,101218.75
2022-08-30T14:00:25.867Z,101213.47
2022-08-30T14:02:57.770Z,101219.75
2022-08-30T14:06:15.858Z,101217.44
2022-08-30T14:08:46.237Z,101218.00
2022-08-30T14:11:20.827Z,101212.25
2022-08-30T14:16:39.476Z,101205.88
2022-08-30T14:19:07.383Z,101203.47
2022-08-30T14:21:35.734Z,101197.00
2022-08-30T14:24:05.319Z,101202.66
2022-08-30T14:26:45.764Z,101201.47
2022-08-30T14:29:16.441Z,101199.00
2022-08-30T14:31:43.981Z,101198.56
2022-08-30T14:34:12.208Z,101202.22
2022-08-30T14:36:41.814Z,101197.81
2022-08-30T14:39:11.891Z,101185.22
2022-08-30T14:41:45.337Z,101189.09
2022-08-30T14:44:13.891Z,101187.06
2022-08-30T14:46:42.025Z,101193.63
2022-08-30T14:49:11.197Z,101190.41
2022-08-30T14:51:39.171Z,101184.88
2022-08-30T14:54:06.958Z,101179.63
2022-08-30T14:56:36.906Z,101180.78
2022-08-30T14:59:04.138Z,101165.88
2022-08-30T15:01:32.157Z,101170.31
2022-08-30T15:04:07.227Z,101161.78
2022-08-30T15:06:36.482Z,101166.09
2022-08-30T15:09:05.961Z,101158.22
2022-08-30T15:11:33.968Z,101151.91
2022-08-30T15:14:01.801Z,101145.72
2022-08-30T15:16:32.101Z,101143.63
2022-08-30T15:18:59.602Z,101143.69
2022-08-30T15:21:39.995Z,101145.00
2022-08-30T15:24:09.744Z,101146.84
2022-08-30T15:26:44.273Z,101138.91
2022-08-30T15:29:13.761Z,101136.91
2022-08-30T15:31:41.992Z,101141.06
2022-08-30T15:34:11.600Z,101131.94
2022-08-30T15:36:39.604Z,101131.25
2022-08-30T15:39:09.796Z,101123.91
2022-08-30T15:41:37.776Z,101131.81
2022-08-30T15:44:07.349Z,101139.16
2022-08-30T15:46:38.078Z,101128.44
2022-08-30T15:49:12.338Z,101124.34
2022-08-30T15:51:41.888Z,101119.91
2022-08-30T15:54:16.487Z,101125.72
2022-08-30T15:56:44.214Z,101115.53
2022-08-30T15:59:15.234Z,101117.72
2022-08-30T16:01:45.033Z,101108.91
2022-08-30T16:04:18.321Z,101110.25
2022-08-30T16:06:46.512Z,101109.75
2022-08-30T16:09:14.025Z,101108.91
2022-08-30T16:11:41.881Z,101107.66
2022-08-30T16:14:09.989Z,101094.03
2022-08-30T16:16:39.994Z,101099.28
2022-08-30T16:19:09.453Z,101099.16
2022-08-30T16:21:37.849Z,101094.75
2022-08-30T16:24:06.849Z,101086.78
2022-08-30T16:26:35.187Z,101090.94
2022-08-30T16:29:04.452Z,101092.97
2022-08-30T16:31:34.915Z,101096.94
2022-08-30T16:34:04.389Z,101091.34
2022-08-30T16:36:33.144Z,101081.50
2022-08-30T16:39:00.908Z,101083.44
2022-08-30T16:41:28.638Z,101088.59
2022-08-30T16:43:56.470Z,101085.06
2022-08-30T16:46:28.130Z,101080.59
2022-08-30T16:48:57.570Z,101077.06
2022-08-30T16:51:27.508Z,101077.28
2022-08-30T16:53:56.064Z,101075.13
2022-08-30T16:56:25.134Z,101073.66
2022-08-30T16:59:01.367Z,101076.13
2022-08-30T17:01:37.632Z,101081.53
2022-08-30T17:04:06.608Z,101070.31
2022-08-30T17:06:35.737Z,101068.19
2022-08-30T17:09:05.076Z,101075.25
2022-08-30T17:11:33.174Z,101075.53
2022-08-30T17:16:48.046Z,101073.28
2022-08-30T17:19:15.421Z,101075.22
2022-08-30T17:21:43.740Z,101073.66
2022-08-30T17:24:12.754Z,101077.41
2022-08-30T17:26:40.198Z,101076.59
2022-08-30T17:29:07.974Z,101077.16
2022-08-30T17:31:35.923Z,101083.66
2022-08-30T17:34:05.765Z,101075.63
2022-08-30T17:36:35.629Z,101085.84
2022-08-30T17:39:10.538Z,101091.34
2022-08-30T17:41:45.345Z,101089.34
2022-08-30T17:44:18.850Z,101086.75
2022-08-30T17:46:46.230Z,101094.03
2022-08-30T17:49:13.695Z,101098.44
2022-08-30T17:51:44.200Z,101098.91
2022-08-30T17:54:13.034Z,101104.31
2022-08-30T17:56:41.740Z,101111.94
2022-08-30T17:59:13.214Z,101108.22
2022-08-30T18:01:44.161Z,101101.66
2022-08-30T18:04:12.766Z,101107.97
2022-08-30T18:06:40.246Z,101113.06
2022-08-30T18:09:08.568Z,101116.31
2022-08-30T18:11:41.675Z,101120.47
2022-08-30T18:14:11.362Z,101120.50
2022-08-30T18:16:49.982Z,101125.19
2022-08-30T18:19:28.990Z,101135.81
2022-08-30T18:21:56.426Z,101141.56
2022-08-30T18:24:24.246Z,101139.19
2022-08-30T18:26:52.778Z,101136.78
2022-08-30T18:29:29.487Z,101137.56
2022-08-30T18:32:02.879Z,101136.75
2022-08-30T18:34:30.552Z,101143.69
2022-08-30T18:36:57.843Z,101147.75
2022-08-30T18:39:25.955Z,101145.72
2022-08-30T18:41:54.628Z,101158.25
2022-08-30T18:44:28.217Z,101153.34
2022-08-30T18:47:00.199Z,101162.63
2022-08-30T18:49:32.554Z,101157.81
2022-08-30T18:52:01.913Z,101163.88
2022-08-30T18:54:30.742Z,101166.31
2022-08-30T18:56:58.254Z,101168.34
2022-08-30T18:59:35.333Z,101172.41
2022-08-30T19:02:06.666Z,101176.00
2022-08-30T19:04:35.796Z,101181.69
2022-08-30T19:07:06.465Z,101191.69
2022-08-30T19:09:34.160Z,101194.97
2022-08-30T19:12:01.569Z,101195.00
2022-08-30T19:14:28.867Z,101196.59
2022-08-30T19:16:57.308Z,101209.94
2022-08-30T19:19:24.566Z,101210.31
2022-08-30T19:21:52.264Z,101218.41
2022-08-30T19:24:20.175Z,101215.97
2022-08-30T19:26:48.883Z,101223.22
2022-08-30T19:29:16.390Z,101215.56
2022-08-30T19:31:43.815Z,101221.59
2022-08-30T19:34:11.879Z,101222.41
2022-08-30T19:36:39.873Z,101221.22
2022-08-30T19:39:07.216Z,101217.19
2022-08-30T19:41:34.742Z,101219.59
2022-08-30T19:44:03.623Z,101214.78
2022-08-30T19:46:32.503Z,101214.38
2022-08-30T19:49:01.204Z,101227.28
2022-08-30T19:51:28.880Z,101225.66
2022-08-30T19:53:59.149Z,101227.25
2022-08-30T19:56:26.567Z,101230.88
2022-08-30T19:58:53.952Z,101226.06
2022-08-30T20:01:32.357Z,101229.69
2022-08-30T20:04:02.188Z,101223.25
2022-08-30T20:06:31.217Z,101226.06
2022-08-30T20:09:00.275Z,101235.34
2022-08-30T20:11:28.264Z,101228.06
2022-08-30T20:13:55.640Z,101236.13
2022-08-30T20:16:36.427Z,101238.50
2022-08-30T20:19:08.584Z,101238.47
2022-08-30T20:21:36.778Z,101242.09
2022-08-30T20:24:05.079Z,101234.06
2022-08-30T20:24:23.415Z,101071.50
2022-08-30T20:26:38.594Z,101244.56
2022-08-30T20:29:07.376Z,101246.56
2022-08-30T20:31:35.624Z,101241.25
2022-08-30T20:34:04.163Z,101243.28
2022-08-30T20:36:32.465Z,101245.41
2022-08-30T20:39:01.377Z,101243.81
2022-08-30T20:41:30.621Z,101241.34
2022-08-30T20:43:58.327Z,101241.34
2022-08-30T20:46:27.034Z,101244.97
2022-08-30T20:48:56.854Z,101245.00
2022-08-30T20:51:24.165Z,101236.13
2022-08-30T20:53:51.662Z,101238.94
2022-08-30T20:56:21.724Z,101238.56
2022-08-30T20:58:49.442Z,101240.97
2022-08-30T21:01:17.240Z,101241.38
2022-08-30T21:03:47.583Z,101251.44
2022-08-30T21:06:16.613Z,101246.22
2022-08-30T21:08:44.335Z,101249.38
2022-08-30T21:11:12.310Z,101255.78
2022-08-30T21:13:39.587Z,101251.34
2022-08-30T21:16:07.476Z,101250.91
2022-08-30T21:18:36.332Z,101255.28
2022-08-30T21:21:15.512Z,101254.09
2022-08-30T21:23:42.810Z,101256.53
2022-08-30T21:26:10.524Z,101259.31
2022-08-30T21:28:38.882Z,101259.22
2022-08-30T21:31:08.367Z,101259.69
2022-08-30T21:33:36.536Z,101258.53
2022-08-30T21:36:27.091Z,101263.50
2022-08-30T21:38:54.563Z,101261.00
2022-08-30T21:41:28.911Z,101262.59
2022-08-30T21:44:01.825Z,101257.53
2022-08-30T21:46:30.379Z,101257.88
2022-08-30T21:49:01.262Z,101260.69
2022-08-30T21:51:29.526Z,101264.78
2022-08-30T21:53:57.634Z,101261.69
2022-08-30T21:56:25.181Z,101263.28
2022-08-30T21:58:52.451Z,101270.59
2022-08-30T22:01:23.556Z,101266.06
2022-08-30T22:03:52.430Z,101270.69
2022-08-30T22:06:19.759Z,101269.28
2022-08-30T22:08:49.902Z,101275.44
2022-08-30T22:11:21.553Z,101273.25
2022-08-30T22:13:50.588Z,101277.06
2022-08-30T22:16:20.779Z,101271.28
2022-08-30T22:18:48.792Z,101279.13
2022-08-30T22:21:19.554Z,101283.03
2022-08-30T22:23:46.872Z,101283.22
2022-08-30T22:26:15.996Z,101274.97
2022-08-30T22:28:43.325Z,101273.41
2022-08-30T22:31:12.546Z,101281.53
2022-08-30T22:33:40.720Z,101286.72
2022-08-30T22:36:17.419Z,101289.13
2022-08-30T22:38:44.933Z,101293.19
2022-08-30T22:41:16.605Z,101295.19
2022-08-30T22:43:45.004Z,101301.09
2022-08-30T22:46:12.578Z,101295.06
2022-08-30T22:48:42.051Z,101295.28
2022-08-30T22:51:10.139Z,101292.47
2022-08-30T22:53:37.951Z,101288.72
2022-08-30T22:56:20.080Z,101295.97
2022-08-30T22:58:48.112Z,101296.25
2022-08-30T23:01:29.648Z,101304.28
2022-08-30T23:03:58.042Z,101301.81
2022-08-30T23:06:25.370Z,101301.47
2022-08-30T23:08:52.998Z,101302.66
2022-08-30T23:11:20.680Z,101302.13
2022-08-30T23:13:48.356Z,101294.22
2022-08-30T23:16:16.519Z,101297.81
2022-08-30T23:18:45.339Z,101294.22
2022-08-30T23:21:19.229Z,101302.53
2022-08-30T23:24:05.157Z,101303.81
2022-08-30T23:26:51.240Z,101299.72
2022-08-30T23:29:37.239Z,101299.84
2022-08-30T23:32:23.661Z,101302.69
2022-08-30T23:35:09.472Z,101306.09
2022-08-30T23:37:55.419Z,101310.38
2022-08-30T23:40:42.128Z,101302.50
2022-08-30T23:43:28.962Z,101299.78
2022-08-30T23:46:18.801Z,101293.53
2022-08-30T23:49:08.747Z,101305.09
2022-08-30T23:51:56.312Z,101300.38
2022-08-30T23:54:42.636Z,101296.81
2022-08-30T23:57:28.527Z,101290.16
